sensor_id;sensor_type;location;lat;lon;timestamp;P1;durP1;ratioP1;P2;durP2;ratioP2
18933;SDS011;9599;53.706;10.384;2022-08-21T00:00:20;4.00;;;2.70;;
18933;SDS011;9599;53.706;10.384;2022-08-21T00:02:52;5.87;;;2.80;;
18933;SDS011;9599;53.706;10.384;2022-08-21T00:05:23;6.33;;;2.93;;
18933;SDS011;9599;53.706;10.384;2022-08-21T00:07:52;5.17;;;2.87;;
18933;SDS011;9599;53.706;10.384;2022-08-21T00:10:21;4.40;;;2.50;;
18933;SDS011;9599;53.706;10.384;2022-08-21T00:12:49;7.43;;;3.00;;
18933;SDS011;9599;53.706;10.384;2022-08-21T00:15:19;4.80;;;2.63;;
18933;SDS011;9599;53.706;10.384;2022-08-21T00:17:53;2.80;;;2.43;;
18933;SDS011;9599;53.706;10.384;2022-08-21T00:20:21;3.63;;;2.50;;
18933;SDS011;9599;53.706;10.384;2022-08-21T00:22:50;4.10;;;2.63;;
18933;SDS011;9599;53.706;10.384;2022-08-21T00:25:19;3.43;;;2.57;;
18933;SDS011;9599;53.706;10.384;2022-08-21T00:27:51;4.33;;;2.87;;
18933;SDS011;9599;53.706;10.384;2022-08-21T00:30:20;4.10;;;2.97;;
18933;SDS011;9599;53.706;10.384;2022-08-21T00:32:50;4.50;;;3.13;;
18933;SDS011;9599;53.706;10.384;2022-08-21T00:35:20;6.60;;;2.93;;
18933;SDS011;9599;53.706;10.384;2022-08-21T00:37:53;6.00;;;2.80;;
18933;SDS011;9599;53.706;10.384;2022-08-21T00:40:22;5.07;;;2.77;;
18933;SDS011;9599;53.706;10.384;2022-08-21T00:42:55;3.13;;;2.70;;
18933;SDS011;9599;53.706;10.384;2022-08-21T00:45:24;5.63;;;3.33;;
18933;SDS011;9599;53.706;10.384;2022-08-21T00:47:54;5.83;;;2.90;;
18933;SDS011;9599;53.706;10.384;2022-08-21T00:50:23;6.43;;;3.00;;
18933;SDS011;9599;53.706;10.384;2022-08-21T00:52:55;5.27;;;3.20;;
18933;SDS011;9599;53.706;10.384;2022-08-21T00:55:25;4.80;;;3.20;;
18933;SDS011;9599;53.706;10.384;2022-08-21T00:57:57;6.00;;;3.10;;
18933;SDS011;9599;53.706;10.384;2022-08-21T01:00:28;4.67;;;3.20;;
18933;SDS011;9599;53.706;10.384;2022-08-21T01:02:59;6.27;;;3.20;;
18933;SDS011;9599;53.706;10.384;2022-08-21T01:05:34;6.07;;;3.40;;
18933;SDS011;9599;53.706;10.384;2022-08-21T01:08:02;6.00;;;3.30;;
18933;SDS011;9599;53.706;10.384;2022-08-21T01:10:31;6.00;;;3.33;;
18933;SDS011;9599;53.706;10.384;2022-08-21T01:12:59;6.00;;;3.20;;
18933;SDS011;9599;53.706;10.384;2022-08-21T01:15:29;5.73;;;3.23;;
18933;SDS011;9599;53.706;10.384;2022-08-21T01:18:00;6.00;;;2.97;;
18933;SDS011;9599;53.706;10.384;2022-08-21T01:20:29;3.80;;;3.03;;
18933;SDS011;9599;53.706;10.384;2022-08-21T01:22:59;6.17;;;3.40;;
18933;SDS011;9599;53.706;10.384;2022-08-21T01:25:27;4.57;;;3.40;;
18933;SDS011;9599;53.706;10.384;2022-08-21T01:27:56;5.57;;;3.20;;
18933;SDS011;9599;53.706;10.384;2022-08-21T01:30:27;5.73;;;3.20;;
18933;SDS011;9599;53.706;10.384;2022-08-21T01:32:55;6.10;;;3.13;;
18933;SDS011;9599;53.706;10.384;2022-08-21T01:35:24;5.97;;;3.20;;
18933;SDS011;9599;53.706;10.384;2022-08-21T01:37:53;4.70;;;3.10;;
18933;SDS011;9599;53.706;10.384;2022-08-21T01:40:22;5.27;;;3.40;;
18933;SDS011;9599;53.706;10.384;2022-08-21T01:42:50;6.17;;;3.60;;
18933;SDS011;9599;53.706;10.384;2022-08-21T01:45:18;4.50;;;3.20;;
18933;SDS011;9599;53.706;10.384;2022-08-21T01:47:46;4.83;;;3.17;;
18933;SDS011;9599;53.706;10.384;2022-08-21T01:50:15;5.37;;;3.40;;
18933;SDS011;9599;53.706;10.384;2022-08-21T01:52:45;3.70;;;2.93;;
18933;SDS011;9599;53.706;10.384;2022-08-21T01:55:14;4.43;;;3.03;;
18933;SDS011;9599;53.706;10.384;2022-08-21T01:57:45;4.77;;;3.17;;
18933;SDS011;9599;53.706;10.384;2022-08-21T02:00:14;5.63;;;3.03;;
18933;SDS011;9599;53.706;10.384;2022-08-21T02:02:44;4.60;;;3.07;;
18933;SDS011;9599;53.706;10.384;2022-08-21T02:05:12;6.63;;;3.90;;
18933;SDS011;9599;53.706;10.384;2022-08-21T02:07:41;5.37;;;3.57;;
18933;SDS011;9599;53.706;10.384;2022-08-21T02:10:12;6.00;;;3.50;;
18933;SDS011;9599;53.706;10.384;2022-08-21T02:12:41;4.27;;;3.30;;
18933;SDS011;9599;53.706;10.384;2022-08-21T02:15:11;4.77;;;3.60;;
18933;SDS011;9599;53.706;10.384;2022-08-21T02:17:40;6.67;;;3.40;;
18933;SDS011;9599;53.706;10.384;2022-08-21T02:20:09;6.10;;;3.43;;
18933;SDS011;9599;53.706;10.384;2022-08-21T02:22:38;7.00;;;3.40;;
18933;SDS011;9599;53.706;10.384;2022-08-21T02:25:06;3.97;;;3.30;;
18933;SDS011;9599;53.706;10.384;2022-08-21T02:27:37;5.53;;;3.20;;
18933;SDS011;9599;53.706;10.384;2022-08-21T02:30:07;5.70;;;3.20;;
18933;SDS011;9599;53.706;10.384;2022-08-21T02:32:39;7.70;;;3.53;;
18933;SDS011;9599;53.706;10.384;2022-08-21T02:35:08;6.17;;;3.30;;
18933;SDS011;9599;53.706;10.384;2022-08-21T02:37:44;4.93;;;3.20;;
18933;SDS011;9599;53.706;10.384;2022-08-21T02:40:14;5.73;;;3.50;;
18933;SDS011;9599;53.706;10.384;2022-08-21T02:42:43;3.67;;;3.30;;
18933;SDS011;9599;53.706;10.384;2022-08-21T02:45:12;5.90;;;3.33;;
18933;SDS011;9599;53.706;10.384;2022-08-21T02:47:47;5.10;;;3.17;;
18933;SDS011;9599;53.706;10.384;2022-08-21T02:50:17;5.57;;;3.30;;
18933;SDS011;9599;53.706;10.384;2022-08-21T02:52:46;6.03;;;3.77;;
18933;SDS011;9599;53.706;10.384;2022-08-21T02:55:20;4.60;;;3.40;;
18933;SDS011;9599;53.706;10.384;2022-08-21T02:57:49;7.07;;;3.40;;
18933;SDS011;9599;53.706;10.384;2022-08-21T03:00:17;5.10;;;3.57;;
18933;SDS011;9599;53.706;10.384;2022-08-21T03:02:48;6.10;;;3.37;;
18933;SDS011;9599;53.706;10.384;2022-08-21T03:05:17;6.83;;;3.87;;
18933;SDS011;9599;53.706;10.384;2022-08-21T03:07:46;4.90;;;3.27;;
18933;SDS011;9599;53.706;10.384;2022-08-21T03:10:14;6.17;;;4.00;;
18933;SDS011;9599;53.706;10.384;2022-08-21T03:12:42;4.30;;;3.37;;
18933;SDS011;9599;53.706;10.384;2022-08-21T03:15:11;5.40;;;4.10;;
18933;SDS011;9599;53.706;10.384;2022-08-21T03:17:42;5.53;;;3.60;;
18933;SDS011;9599;53.706;10.384;2022-08-21T03:20:12;5.57;;;3.73;;
18933;SDS011;9599;53.706;10.384;2022-08-21T03:22:41;5.67;;;3.83;;
18933;SDS011;9599;53.706;10.384;2022-08-21T03:25:18;7.20;;;4.17;;
18933;SDS011;9599;53.706;10.384;2022-08-21T03:27:58;6.30;;;4.20;;
18933;SDS011;9599;53.706;10.384;2022-08-21T03:30:26;5.43;;;3.67;;
18933;SDS011;9599;53.706;10.384;2022-08-21T03:32:57;5.03;;;3.97;;
18933;SDS011;9599;53.706;10.384;2022-08-21T03:35:27;5.83;;;4.33;;
18933;SDS011;9599;53.706;10.384;2022-08-21T03:37:55;5.97;;;4.17;;
18933;SDS011;9599;53.706;10.384;2022-08-21T03:40:23;4.40;;;3.70;;
18933;SDS011;9599;53.706;10.384;2022-08-21T03:42:52;8.57;;;3.97;;
18933;SDS011;9599;53.706;10.384;2022-08-21T03:45:20;5.87;;;3.87;;
18933;SDS011;9599;53.706;10.384;2022-08-21T03:47:52;6.43;;;3.63;;
18933;SDS011;9599;53.706;10.384;2022-08-21T03:50:22;7.40;;;3.67;;
18933;SDS011;9599;53.706;10.384;2022-08-21T03:52:51;5.40;;;3.90;;
18933;SDS011;9599;53.706;10.384;2022-08-21T03:55:19;6.87;;;3.60;;
18933;SDS011;9599;53.706;10.384;2022-08-21T03:57:47;4.43;;;3.63;;
18933;SDS011;9599;53.706;10.384;2022-08-21T04:00:16;6.20;;;3.67;;
18933;SDS011;9599;53.706;10.384;2022-08-21T04:02:45;5.97;;;3.70;;
18933;SDS011;9599;53.706;10.384;2022-08-21T04:05:14;3.97;;;3.50;;
18933;SDS011;9599;53.706;10.384;2022-08-21T04:07:55;4.03;;;3.50;;
18933;SDS011;9599;53.706;10.384;2022-08-21T04:10:24;4.57;;;3.30;;
18933;SDS011;9599;53.706;10.384;2022-08-21T04:12:54;5.60;;;3.67;;
18933;SDS011;9599;53.706;10.384;2022-08-21T04:15:23;4.43;;;3.30;;
18933;SDS011;9599;53.706;10.384;2022-08-21T04:17:52;4.80;;;3.47;;
18933;SDS011;9599;53.706;10.384;2022-08-21T04:20:21;4.53;;;3.47;;
18933;SDS011;9599;53.706;10.384;2022-08-21T04:22:49;4.80;;;3.40;;
18933;SDS011;9599;53.706;10.384;2022-08-21T04:25:20;4.30;;;3.87;;
18933;SDS011;9599;53.706;10.384;2022-08-21T04:27:49;4.70;;;3.90;;
18933;SDS011;9599;53.706;10.384;2022-08-21T04:30:17;4.10;;;3.70;;
18933;SDS011;9599;53.706;10.384;2022-08-21T04:32:46;5.33;;;3.93;;
18933;SDS011;9599;53.706;10.384;2022-08-21T04:35:18;5.23;;;4.13;;
18933;SDS011;9599;53.706;10.384;2022-08-21T04:37:48;5.93;;;3.97;;
18933;SDS011;9599;53.706;10.384;2022-08-21T04:40:17;4.43;;;3.60;;
18933;SDS011;9599;53.706;10.384;2022-08-21T04:42:48;8.87;;;4.17;;
18933;SDS011;9599;53.706;10.384;2022-08-21T04:45:18;4.70;;;4.20;;
18933;SDS011;9599;53.706;10.384;2022-08-21T04:47:49;6.57;;;4.23;;
18933;SDS011;9599;53.706;10.384;2022-08-21T04:50:19;6.30;;;4.10;;
18933;SDS011;9599;53.706;10.384;2022-08-21T04:53:02;6.27;;;4.27;;
18933;SDS011;9599;53.706;10.384;2022-08-21T04:55:31;5.50;;;4.47;;
18933;SDS011;9599;53.706;10.384;2022-08-21T04:58:00;7.77;;;4.93;;
18933;SDS011;9599;53.706;10.384;2022-08-21T05:00:28;8.50;;;4.97;;
18933;SDS011;9599;53.706;10.384;2022-08-21T05:02:56;7.20;;;4.90;;
18933;SDS011;9599;53.706;10.384;2022-08-21T05:05:27;6.13;;;4.80;;
18933;SDS011;9599;53.706;10.384;2022-08-21T05:07:56;6.67;;;4.87;;
18933;SDS011;9599;53.706;10.384;2022-08-21T05:10:26;7.83;;;5.00;;
18933;SDS011;9599;53.706;10.384;2022-08-21T05:12:54;8.47;;;5.10;;
18933;SDS011;9599;53.706;10.384;2022-08-21T05:15:24;9.07;;;5.77;;
18933;SDS011;9599;53.706;10.384;2022-08-21T05:17:52;7.63;;;5.80;;
18933;SDS011;9599;53.706;10.384;2022-08-21T05:20:27;9.40;;;6.63;;
18933;SDS011;9599;53.706;10.384;2022-08-21T05:22:55;11.63;;;6.40;;
18933;SDS011;9599;53.706;10.384;2022-08-21T05:25:24;7.90;;;6.30;;
18933;SDS011;9599;53.706;10.384;2022-08-21T05:27:53;8.40;;;6.80;;
18933;SDS011;9599;53.706;10.384;2022-08-21T05:30:27;12.20;;;6.80;;
18933;SDS011;9599;53.706;10.384;2022-08-21T05:32:56;7.97;;;6.60;;
18933;SDS011;9599;53.706;10.384;2022-08-21T05:35:26;9.23;;;6.73;;
18933;SDS011;9599;53.706;10.384;2022-08-21T05:37:55;10.80;;;6.23;;
18933;SDS011;9599;53.706;10.384;2022-08-21T05:40:23;9.67;;;6.53;;
18933;SDS011;9599;53.706;10.384;2022-08-21T05:42:52;10.13;;;7.10;;
18933;SDS011;9599;53.706;10.384;2022-08-21T05:45:21;10.60;;;7.27;;
18933;SDS011;9599;53.706;10.384;2022-08-21T05:48:11;9.03;;;6.53;;
18933;SDS011;9599;53.706;10.384;2022-08-21T05:50:40;8.77;;;6.70;;
18933;SDS011;9599;53.706;10.384;2022-08-21T05:53:09;10.10;;;6.77;;
18933;SDS011;9599;53.706;10.384;2022-08-21T05:55:38;10.03;;;6.43;;
18933;SDS011;9599;53.706;10.384;2022-08-21T05:58:12;12.70;;;6.27;;
18933;SDS011;9599;53.706;10.384;2022-08-21T06:00:41;7.63;;;6.00;;
18933;SDS011;9599;53.706;10.384;2022-08-21T06:03:12;9.40;;;6.07;;
18933;SDS011;9599;53.706;10.384;2022-08-21T06:05:41;10.13;;;5.77;;
18933;SDS011;9599;53.706;10.384;2022-08-21T06:08:09;8.33;;;5.53;;
18933;SDS011;9599;53.706;10.384;2022-08-21T06:10:37;10.43;;;5.00;;
18933;SDS011;9599;53.706;10.384;2022-08-21T06:13:05;5.60;;;4.50;;
18933;SDS011;9599;53.706;10.384;2022-08-21T06:15:33;10.00;;;4.60;;
18933;SDS011;9599;53.706;10.384;2022-08-21T06:18:01;7.90;;;4.80;;
18933;SDS011;9599;53.706;10.384;2022-08-21T06:20:31;6.77;;;3.53;;
18933;SDS011;9599;53.706;10.384;2022-08-21T06:22:59;6.17;;;3.43;;
18933;SDS011;9599;53.706;10.384;2022-08-21T06:25:27;7.57;;;3.20;;
18933;SDS011;9599;53.706;10.384;2022-08-21T06:28:00;5.87;;;2.80;;
18933;SDS011;9599;53.706;10.384;2022-08-21T06:30:29;6.37;;;2.77;;
18933;SDS011;9599;53.706;10.384;2022-08-21T06:32:57;5.10;;;2.80;;
18933;SDS011;9599;53.706;10.384;2022-08-21T06:35:25;6.43;;;2.50;;
18933;SDS011;9599;53.706;10.384;2022-08-21T06:37:56;4.63;;;2.60;;
18933;SDS011;9599;53.706;10.384;2022-08-21T06:40:25;4.13;;;2.40;;
18933;SDS011;9599;53.706;10.384;2022-08-21T06:42:55;4.97;;;2.10;;
18933;SDS011;9599;53.706;10.384;2022-08-21T06:45:24;7.03;;;2.00;;
18933;SDS011;9599;53.706;10.384;2022-08-21T06:47:57;3.90;;;2.00;;
18933;SDS011;9599;53.706;10.384;2022-08-21T06:50:25;9.37;;;2.30;;
18933;SDS011;9599;53.706;10.384;2022-08-21T06:52:59;4.47;;;1.97;;
18933;SDS011;9599;53.706;10.384;2022-08-21T06:55:27;4.90;;;1.93;;
18933;SDS011;9599;53.706;10.384;2022-08-21T06:57:55;2.80;;;1.73;;
18933;SDS011;9599;53.706;10.384;2022-08-21T07:00:23;3.13;;;1.70;;
18933;SDS011;9599;53.706;10.384;2022-08-21T07:02:51;5.33;;;1.90;;
18933;SDS011;9599;53.706;10.384;2022-08-21T07:05:19;3.83;;;1.97;;
18933;SDS011;9599;53.706;10.384;2022-08-21T07:07:47;4.67;;;1.97;;
18933;SDS011;9599;53.706;10.384;2022-08-21T07:10:17;4.20;;;1.90;;
18933;SDS011;9599;53.706;10.384;2022-08-21T07:12:48;3.67;;;1.73;;
18933;SDS011;9599;53.706;10.384;2022-08-21T07:15:25;3.70;;;2.10;;
18933;SDS011;9599;53.706;10.384;2022-08-21T07:17:53;3.03;;;1.70;;
18933;SDS011;9599;53.706;10.384;2022-08-21T07:20:21;3.70;;;1.70;;
18933;SDS011;9599;53.706;10.384;2022-08-21T07:22:49;3.17;;;1.70;;
18933;SDS011;9599;53.706;10.384;2022-08-21T07:25:18;4.53;;;2.00;;
18933;SDS011;9599;53.706;10.384;2022-08-21T07:27:46;3.63;;;1.80;;
18933;SDS011;9599;53.706;10.384;2022-08-21T07:30:14;4.33;;;1.60;;
18933;SDS011;9599;53.706;10.384;2022-08-21T07:32:42;3.53;;;1.80;;
18933;SDS011;9599;53.706;10.384;2022-08-21T07:35:10;3.67;;;1.90;;
18933;SDS011;9599;53.706;10.384;2022-08-21T07:37:38;3.50;;;2.00;;
18933;SDS011;9599;53.706;10.384;2022-08-21T07:40:06;3.93;;;1.67;;
18933;SDS011;9599;53.706;10.384;2022-08-21T07:42:40;5.70;;;1.70;;
18933;SDS011;9599;53.706;10.384;2022-08-21T07:45:09;4.60;;;1.70;;
18933;SDS011;9599;53.706;10.384;2022-08-21T07:47:38;3.90;;;1.80;;
18933;SDS011;9599;53.706;10.384;2022-08-21T07:50:08;4.27;;;1.90;;
18933;SDS011;9599;53.706;10.384;2022-08-21T07:52:38;3.63;;;1.80;;
18933;SDS011;9599;53.706;10.384;2022-08-21T07:55:07;5.53;;;1.73;;
18933;SDS011;9599;53.706;10.384;2022-08-21T07:57:37;3.83;;;1.80;;
18933;SDS011;9599;53.706;10.384;2022-08-21T08:00:08;4.17;;;2.00;;
18933;SDS011;9599;53.706;10.384;2022-08-21T08:02:38;3.53;;;1.87;;
18933;SDS011;9599;53.706;10.384;2022-08-21T08:05:07;3.57;;;2.00;;
18933;SDS011;9599;53.706;10.384;2022-08-21T08:07:37;4.80;;;1.90;;
18933;SDS011;9599;53.706;10.384;2022-08-21T08:10:06;3.67;;;1.73;;
18933;SDS011;9599;53.706;10.384;2022-08-21T08:12:35;4.30;;;1.90;;
18933;SDS011;9599;53.706;10.384;2022-08-21T08:15:07;7.70;;;1.80;;
18933;SDS011;9599;53.706;10.384;2022-08-21T08:17:38;5.10;;;1.77;;
18933;SDS011;9599;53.706;10.384;2022-08-21T08:20:06;4.97;;;2.17;;
18933;SDS011;9599;53.706;10.384;2022-08-21T08:22:35;6.60;;;2.17;;
18933;SDS011;9599;53.706;10.384;2022-08-21T08:25:06;3.90;;;2.03;;
18933;SDS011;9599;53.706;10.384;2022-08-21T08:27:35;7.97;;;2.10;;
18933;SDS011;9599;53.706;10.384;2022-08-21T08:30:03;4.90;;;2.23;;
18933;SDS011;9599;53.706;10.384;2022-08-21T08:32:34;5.13;;;1.90;;
18933;SDS011;9599;53.706;10.384;2022-08-21T08:35:02;3.97;;;2.10;;
18933;SDS011;9599;53.706;10.384;2022-08-21T08:37:31;6.37;;;2.10;;
18933;SDS011;9599;53.706;10.384;2022-08-21T08:40:00;5.40;;;1.97;;
18933;SDS011;9599;53.706;10.384;2022-08-21T08:42:32;5.03;;;2.07;;
18933;SDS011;9599;53.706;10.384;2022-08-21T08:45:02;4.33;;;2.07;;
18933;SDS011;9599;53.706;10.384;2022-08-21T08:47:36;6.37;;;1.97;;
18933;SDS011;9599;53.706;10.384;2022-08-21T08:50:06;4.83;;;2.20;;
18933;SDS011;9599;53.706;10.384;2022-08-21T08:52:40;6.43;;;2.10;;
18933;SDS011;9599;53.706;10.384;2022-08-21T08:55:13;4.63;;;2.00;;
18933;SDS011;9599;53.706;10.384;2022-08-21T08:57:48;4.57;;;2.20;;
18933;SDS011;9599;53.706;10.384;2022-08-21T09:00:19;5.27;;;1.90;;
18933;SDS011;9599;53.706;10.384;2022-08-21T09:02:50;3.93;;;1.67;;
18933;SDS011;9599;53.706;10.384;2022-08-21T09:05:27;5.67;;;2.30;;
18933;SDS011;9599;53.706;10.384;2022-08-21T09:08:00;7.13;;;2.00;;
18933;SDS011;9599;53.706;10.384;2022-08-21T09:10:56;5.90;;;2.07;;
18933;SDS011;9599;53.706;10.384;2022-08-21T09:13:32;5.53;;;1.87;;
18933;SDS011;9599;53.706;10.384;2022-08-21T09:16:11;4.73;;;2.00;;
18933;SDS011;9599;53.706;10.384;2022-08-21T09:18:51;4.83;;;2.30;;
18933;SDS011;9599;53.706;10.384;2022-08-21T09:21:24;3.53;;;2.00;;
18933;SDS011;9599;53.706;10.384;2022-08-21T09:24:00;4.70;;;2.00;;
18933;SDS011;9599;53.706;10.384;2022-08-21T09:26:34;5.60;;;2.20;;
18933;SDS011;9599;53.706;10.384;2022-08-21T09:29:08;4.10;;;2.10;;
18933;SDS011;9599;53.706;10.384;2022-08-21T09:31:39;4.87;;;2.30;;
18933;SDS011;9599;53.706;10.384;2022-08-21T09:34:09;5.90;;;2.00;;
18933;SDS011;9599;53.706;10.384;2022-08-21T09:36:41;6.30;;;2.13;;
18933;SDS011;9599;53.706;10.384;2022-08-21T09:39:12;4.57;;;2.00;;
18933;SDS011;9599;53.706;10.384;2022-08-21T09:41:55;5.47;;;2.17;;
18933;SDS011;9599;53.706;10.384;2022-08-21T09:44:25;4.20;;;2.30;;
18933;SDS011;9599;53.706;10.384;2022-08-21T09:46:55;4.17;;;2.10;;
18933;SDS011;9599;53.706;10.384;2022-08-21T09:49:28;6.37;;;1.90;;
18933;SDS011;9599;53.706;10.384;2022-08-21T09:51:56;3.97;;;2.00;;
18933;SDS011;9599;53.706;10.384;2022-08-21T09:54:27;5.37;;;2.20;;
18933;SDS011;9599;53.706;10.384;2022-08-21T09:56:58;5.23;;;2.17;;
18933;SDS011;9599;53.706;10.384;2022-08-21T09:59:46;5.37;;;2.20;;
18933;SDS011;9599;53.706;10.384;2022-08-21T10:02:19;3.87;;;2.20;;
18933;SDS011;9599;53.706;10.384;2022-08-21T10:04:54;5.37;;;1.97;;
18933;SDS011;9599;53.706;10.384;2022-08-21T10:07:24;5.83;;;2.47;;
18933;SDS011;9599;53.706;10.384;2022-08-21T10:09:58;4.93;;;2.37;;
18933;SDS011;9599;53.706;10.384;2022-08-21T10:12:28;6.43;;;2.33;;
18933;SDS011;9599;53.706;10.384;2022-08-21T10:15:08;4.43;;;2.10;;
18933;SDS011;9599;53.706;10.384;2022-08-21T10:17:44;5.20;;;2.40;;
18933;SDS011;9599;53.706;10.384;2022-08-21T10:20:22;7.73;;;2.37;;
18933;SDS011;9599;53.706;10.384;2022-08-21T10:23:07;5.73;;;2.43;;
18933;SDS011;9599;53.706;10.384;2022-08-21T10:25:49;6.17;;;2.37;;
18933;SDS011;9599;53.706;10.384;2022-08-21T10:28:40;5.40;;;2.37;;
18933;SDS011;9599;53.706;10.384;2022-08-21T10:31:14;6.63;;;2.53;;
18933;SDS011;9599;53.706;10.384;2022-08-21T10:33:55;7.23;;;3.10;;
18933;SDS011;9599;53.706;10.384;2022-08-21T10:36:33;5.83;;;2.60;;
18933;SDS011;9599;53.706;10.384;2022-08-21T10:39:07;6.00;;;2.40;;
18933;SDS011;9599;53.706;10.384;2022-08-21T10:42:08;4.63;;;2.70;;
18933;SDS011;9599;53.706;10.384;2022-08-21T10:44:57;6.95;;;2.58;;
18933;SDS011;9599;53.706;10.384;2022-08-21T10:47:35;7.30;;;2.58;;
18933;SDS011;9599;53.706;10.384;2022-08-21T10:50:09;5.43;;;2.72;;
18933;SDS011;9599;53.706;10.384;2022-08-21T10:52:48;7.30;;;2.90;;
18933;SDS011;9599;53.706;10.384;2022-08-21T10:55:33;4.88;;;2.70;;
18933;SDS011;9599;53.706;10.384;2022-08-21T10:58:08;5.22;;;2.55;;
18933;SDS011;9599;53.706;10.384;2022-08-21T11:00:39;7.20;;;2.50;;
18933;SDS011;9599;53.706;10.384;2022-08-21T11:03:11;8.35;;;2.92;;
18933;SDS011;9599;53.706;10.384;2022-08-21T11:05:44;6.37;;;2.80;;
18933;SDS011;9599;53.706;10.384;2022-08-21T11:08:20;6.30;;;2.80;;
18933;SDS011;9599;53.706;10.384;2022-08-21T11:10:51;5.13;;;2.50;;
18933;SDS011;9599;53.706;10.384;2022-08-21T11:13:27;6.50;;;3.13;;
18933;SDS011;9599;53.706;10.384;2022-08-21T11:16:10;7.00;;;2.58;;
18933;SDS011;9599;53.706;10.384;2022-08-21T11:18:43;9.70;;;2.90;;
18933;SDS011;9599;53.706;10.384;2022-08-21T11:21:19;5.60;;;2.80;;
18933;SDS011;9599;53.706;10.384;2022-08-21T11:24:02;6.57;;;2.80;;
18933;SDS011;9599;53.706;10.384;2022-08-21T11:26:43;5.13;;;3.00;;
18933;SDS011;9599;53.706;10.384;2022-08-21T11:29:17;3.57;;;2.50;;
18933;SDS011;9599;53.706;10.384;2022-08-21T11:31:54;4.47;;;2.90;;
18933;SDS011;9599;53.706;10.384;2022-08-21T11:34:37;6.82;;;2.83;;
18933;SDS011;9599;53.706;10.384;2022-08-21T11:37:17;6.43;;;3.07;;
18933;SDS011;9599;53.706;10.384;2022-08-21T11:40:03;3.93;;;2.40;;
18933;SDS011;9599;53.706;10.384;2022-08-21T11:42:38;5.30;;;2.60;;
18933;SDS011;9599;53.706;10.384;2022-08-21T11:45:14;4.37;;;2.53;;
18933;SDS011;9599;53.706;10.384;2022-08-21T11:47:56;5.60;;;2.23;;
18933;SDS011;9599;53.706;10.384;2022-08-21T11:50:34;5.73;;;2.50;;
18933;SDS011;9599;53.706;10.384;2022-08-21T11:53:04;6.70;;;2.50;;
18933;SDS011;9599;53.706;10.384;2022-08-21T11:55:40;6.30;;;2.30;;
18933;SDS011;9599;53.706;10.384;2022-08-21T11:58:15;5.87;;;2.33;;
18933;SDS011;9599;53.706;10.384;2022-08-21T12:00:48;2.77;;;2.30;;
18933;SDS011;9599;53.706;10.384;2022-08-21T12:03:22;5.83;;;2.40;;
18933;SDS011;9599;53.706;10.384;2022-08-21T12:05:54;4.37;;;2.20;;
18933;SDS011;9599;53.706;10.384;2022-08-21T12:08:27;4.73;;;2.00;;
18933;SDS011;9599;53.706;10.384;2022-08-21T12:11:02;6.67;;;2.10;;
18933;SDS011;9599;53.706;10.384;2022-08-21T12:13:33;6.75;;;2.20;;
18933;SDS011;9599;53.706;10.384;2022-08-21T12:16:09;3.97;;;1.90;;
18933;SDS011;9599;53.706;10.384;2022-08-21T12:18:39;4.03;;;2.40;;
18933;SDS011;9599;53.706;10.384;2022-08-21T12:21:19;4.03;;;2.00;;
18933;SDS011;9599;53.706;10.384;2022-08-21T12:23:59;4.33;;;2.20;;
18933;SDS011;9599;53.706;10.384;2022-08-21T12:26:32;4.20;;;2.17;;
18933;SDS011;9599;53.706;10.384;2022-08-21T12:29:10;3.67;;;2.10;;
18933;SDS011;9599;53.706;10.384;2022-08-21T12:31:50;3.90;;;2.10;;
18933;SDS011;9599;53.706;10.384;2022-08-21T12:34:20;5.43;;;2.10;;
18933;SDS011;9599;53.706;10.384;2022-08-21T12:36:53;3.73;;;2.03;;
18933;SDS011;9599;53.706;10.384;2022-08-21T12:39:26;3.50;;;2.00;;
18933;SDS011;9599;53.706;10.384;2022-08-21T12:41:59;4.20;;;2.00;;
18933;SDS011;9599;53.706;10.384;2022-08-21T12:44:36;3.83;;;1.80;;
18933;SDS011;9599;53.706;10.384;2022-08-21T12:47:12;4.87;;;2.00;;
18933;SDS011;9599;53.706;10.384;2022-08-21T12:49:47;6.47;;;2.00;;
18933;SDS011;9599;53.706;10.384;2022-08-21T12:52:22;4.13;;;2.00;;
18933;SDS011;9599;53.706;10.384;2022-08-21T12:54:58;5.03;;;1.80;;
18933;SDS011;9599;53.706;10.384;2022-08-21T12:57:29;3.90;;;1.90;;
18933;SDS011;9599;53.706;10.384;2022-08-21T12:59:59;3.37;;;1.80;;
18933;SDS011;9599;53.706;10.384;2022-08-21T13:02:29;3.03;;;1.90;;
18933;SDS011;9599;53.706;10.384;2022-08-21T13:05:01;2.70;;;1.80;;
18933;SDS011;9599;53.706;10.384;2022-08-21T13:07:32;3.57;;;1.97;;
18933;SDS011;9599;53.706;10.384;2022-08-21T13:10:03;2.87;;;1.90;;
18933;SDS011;9599;53.706;10.384;2022-08-21T13:12:35;2.97;;;2.00;;
18933;SDS011;9599;53.706;10.384;2022-08-21T13:15:04;3.40;;;1.60;;
18933;SDS011;9599;53.706;10.384;2022-08-21T13:17:35;3.57;;;1.80;;
18933;SDS011;9599;53.706;10.384;2022-08-21T13:20:07;4.50;;;1.90;;
18933;SDS011;9599;53.706;10.384;2022-08-21T13:22:45;2.83;;;1.70;;
18933;SDS011;9599;53.706;10.384;2022-08-21T13:25:14;3.50;;;1.87;;
18933;SDS011;9599;53.706;10.384;2022-08-21T13:27:57;3.30;;;1.87;;
18933;SDS011;9599;53.706;10.384;2022-08-21T13:30:27;2.37;;;1.73;;
18933;SDS011;9599;53.706;10.384;2022-08-21T13:32:57;2.43;;;1.67;;
18933;SDS011;9599;53.706;10.384;2022-08-21T13:35:28;2.83;;;1.90;;
18933;SDS011;9599;53.706;10.384;2022-08-21T13:37:58;3.03;;;1.70;;
18933;SDS011;9599;53.706;10.384;2022-08-21T13:40:29;4.00;;;1.77;;
18933;SDS011;9599;53.706;10.384;2022-08-21T13:43:00;3.40;;;1.83;;
18933;SDS011;9599;53.706;10.384;2022-08-21T13:45:31;4.10;;;1.80;;
18933;SDS011;9599;53.706;10.384;2022-08-21T13:48:00;5.97;;;2.27;;
18933;SDS011;9599;53.706;10.384;2022-08-21T13:50:32;3.83;;;2.00;;
18933;SDS011;9599;53.706;10.384;2022-08-21T13:53:03;3.57;;;1.87;;
18933;SDS011;9599;53.706;10.384;2022-08-21T13:55:34;4.20;;;1.87;;
18933;SDS011;9599;53.706;10.384;2022-08-21T13:58:06;3.07;;;1.70;;
18933;SDS011;9599;53.706;10.384;2022-08-21T14:00:43;4.10;;;1.77;;
18933;SDS011;9599;53.706;10.384;2022-08-21T14:03:14;3.03;;;1.70;;
18933;SDS011;9599;53.706;10.384;2022-08-21T14:05:53;2.90;;;2.00;;
18933;SDS011;9599;53.706;10.384;2022-08-21T14:08:27;3.17;;;1.70;;
18933;SDS011;9599;53.706;10.384;2022-08-21T14:10:58;3.10;;;1.90;;
18933;SDS011;9599;53.706;10.384;2022-08-21T14:13:35;4.00;;;2.07;;
18933;SDS011;9599;53.706;10.384;2022-08-21T14:16:16;2.60;;;1.80;;
18933;SDS011;9599;53.706;10.384;2022-08-21T14:18:47;3.93;;;1.93;;
18933;SDS011;9599;53.706;10.384;2022-08-21T14:21:29;2.83;;;1.80;;
18933;SDS011;9599;53.706;10.384;2022-08-21T14:24:04;4.53;;;1.83;;
18933;SDS011;9599;53.706;10.384;2022-08-21T14:26:35;2.97;;;1.60;;
18933;SDS011;9599;53.706;10.384;2022-08-21T14:29:12;3.07;;;1.57;;
18933;SDS011;9599;53.706;10.384;2022-08-21T14:31:42;3.33;;;1.60;;
18933;SDS011;9599;53.706;10.384;2022-08-21T14:34:16;3.33;;;1.83;;
18933;SDS011;9599;53.706;10.384;2022-08-21T14:36:45;2.33;;;1.57;;
18933;SDS011;9599;53.706;10.384;2022-08-21T14:39:14;4.13;;;1.63;;
18933;SDS011;9599;53.706;10.384;2022-08-21T14:41:42;2.77;;;1.30;;
18933;SDS011;9599;53.706;10.384;2022-08-21T14:44:13;4.50;;;1.40;;
18933;SDS011;9599;53.706;10.384;2022-08-21T14:46:42;4.13;;;1.57;;
18933;SDS011;9599;53.706;10.384;2022-08-21T14:49:22;2.47;;;1.40;;
18933;SDS011;9599;53.706;10.384;2022-08-21T14:51:52;2.73;;;1.50;;
18933;SDS011;9599;53.706;10.384;2022-08-21T14:54:23;3.27;;;1.50;;
18933;SDS011;9599;53.706;10.384;2022-08-21T14:56:57;3.17;;;1.50;;
18933;SDS011;9599;53.706;10.384;2022-08-21T14:59:29;2.77;;;1.10;;
18933;SDS011;9599;53.706;10.384;2022-08-21T15:01:58;2.80;;;1.50;;
18933;SDS011;9599;53.706;10.384;2022-08-21T15:04:25;2.80;;;1.40;;
18933;SDS011;9599;53.706;10.384;2022-08-21T15:06:53;2.17;;;1.50;;
18933;SDS011;9599;53.706;10.384;2022-08-21T15:09:22;1.97;;;1.13;;
18933;SDS011;9599;53.706;10.384;2022-08-21T15:11:50;2.33;;;1.20;;
18933;SDS011;9599;53.706;10.384;2022-08-21T15:14:21;2.70;;;1.50;;